sensor_id;sensor_type;location;lat;lon;timestamp;P1;durP1;ratioP1;P2;durP2;ratioP2
47545;SDS011;50104;52.002;4.688;2022-08-04T00:04:26;8.00;;;3.60;;
47545;SDS011;50104;52.002;4.688;2022-08-04T00:09:54;7.40;;;4.50;;
47545;SDS011;50104;52.002;4.688;2022-08-04T00:15:04;7.70;;;4.82;;
47545;SDS011;50104;52.002;4.688;2022-08-04T00:20:06;6.78;;;3.97;;
47545;SDS011;50104;52.002;4.688;2022-08-04T00:25:09;8.52;;;4.57;;
47545;SDS011;50104;52.002;4.688;2022-08-04T00:30:10;5.60;;;4.55;;
47545;SDS011;50104;52.002;4.688;2022-08-04T00:35:15;10.32;;;4.43;;
47545;SDS011;50104;52.002;4.688;2022-08-04T00:40:24;4.88;;;4.40;;
47545;SDS011;50104;52.002;4.688;2022-08-04T00:51:09;10.57;;;4.95;;
47545;SDS011;50104;52.002;4.688;2022-08-04T01:02:28;10.27;;;5.18;;
47545;SDS011;50104;52.002;4.688;2022-08-04T01:13:42;4.72;;;4.10;;
47545;SDS011;50104;52.002;4.688;2022-08-04T01:19:07;7.38;;;4.65;;
47545;SDS011;50104;52.002;4.688;2022-08-04T01:30:18;8.05;;;5.30;;
47545;SDS011;50104;52.002;4.688;2022-08-04T01:35:27;6.13;;;5.18;;
47545;SDS011;50104;52.002;4.688;2022-08-04T01:40:35;7.13;;;5.57;;
47545;SDS011;50104;52.002;4.688;2022-08-04T01:45:37;8.75;;;4.38;;
47545;SDS011;50104;52.002;4.688;2022-08-04T01:50:39;5.93;;;5.20;;
47545;SDS011;50104;52.002;4.688;2022-08-04T01:55:42;7.55;;;5.15;;
47545;SDS011;50104;52.002;4.688;2022-08-04T02:00:49;7.50;;;4.78;;
47545;SDS011;50104;52.002;4.688;2022-08-04T02:11:40;6.85;;;5.07;;
47545;SDS011;50104;52.002;4.688;2022-08-04T02:17:02;7.07;;;5.60;;
47545;SDS011;50104;52.002;4.688;2022-08-04T02:22:15;12.43;;;5.45;;
47545;SDS011;50104;52.002;4.688;2022-08-04T02:27:19;7.43;;;5.60;;
47545;SDS011;50104;52.002;4.688;2022-08-04T02:32:29;8.98;;;5.13;;
47545;SDS011;50104;52.002;4.688;2022-08-04T02:37:38;6.75;;;5.38;;
47545;SDS011;50104;52.002;4.688;2022-08-04T02:42:51;9.45;;;6.43;;
47545;SDS011;50104;52.002;4.688;2022-08-04T02:47:56;6.97;;;4.80;;
47545;SDS011;50104;52.002;4.688;2022-08-04T02:53:01;8.00;;;5.38;;
47545;SDS011;50104;52.002;4.688;2022-08-04T02:58:04;7.20;;;4.80;;
47545;SDS011;50104;52.002;4.688;2022-08-04T03:14:06;6.35;;;4.65;;
47545;SDS011;50104;52.002;4.688;2022-08-04T03:30:42;8.45;;;4.97;;
47545;SDS011;50104;52.002;4.688;2022-08-04T03:36:37;5.75;;;4.60;;
47545;SDS011;50104;52.002;4.688;2022-08-04T04:21:26;7.20;;;4.32;;
47545;SDS011;50104;52.002;4.688;2022-08-04T04:27:01;5.93;;;3.90;;
47545;SDS011;50104;52.002;4.688;2022-08-04T04:32:35;6.50;;;4.13;;
47545;SDS011;50104;52.002;4.688;2022-08-04T04:38:06;6.70;;;4.30;;
47545;SDS011;50104;52.002;4.688;2022-08-04T04:59:48;9.95;;;3.45;;
47545;SDS011;50104;52.002;4.688;2022-08-04T05:21:40;9.68;;;3.65;;
47545;SDS011;50104;52.002;4.688;2022-08-04T05:26:47;5.68;;;4.47;;
47545;SDS011;50104;52.002;4.688;2022-08-04T05:31:55;7.85;;;3.63;;
47545;SDS011;50104;52.002;4.688;2022-08-04T05:36:59;12.82;;;3.70;;
47545;SDS011;50104;52.002;4.688;2022-08-04T05:42:08;14.00;;;4.20;;
47545;SDS011;50104;52.002;4.688;2022-08-04T05:47:11;7.88;;;3.83;;
47545;SDS011;50104;52.002;4.688;2022-08-04T05:52:14;14.43;;;3.97;;
47545;SDS011;50104;52.002;4.688;2022-08-04T05:57:16;12.05;;;4.30;;
47545;SDS011;50104;52.002;4.688;2022-08-04T06:02:17;9.02;;;3.55;;
47545;SDS011;50104;52.002;4.688;2022-08-04T06:07:19;6.95;;;3.30;;
47545;SDS011;50104;52.002;4.688;2022-08-04T06:12:21;7.03;;;2.88;;
47545;SDS011;50104;52.002;4.688;2022-08-04T06:17:37;6.83;;;3.60;;
47545;SDS011;50104;52.002;4.688;2022-08-04T06:22:52;7.15;;;3.15;;
47545;SDS011;50104;52.002;4.688;2022-08-04T06:27:56;9.30;;;2.83;;
47545;SDS011;50104;52.002;4.688;2022-08-04T06:32:59;6.10;;;2.67;;
47545;SDS011;50104;52.002;4.688;2022-08-04T06:38:02;5.28;;;2.35;;
47545;SDS011;50104;52.002;4.688;2022-08-04T06:43:05;6.78;;;2.05;;
47545;SDS011;50104;52.002;4.688;2022-08-04T06:48:06;10.73;;;2.80;;
47545;SDS011;50104;52.002;4.688;2022-08-04T06:53:12;6.93;;;2.50;;
47545;SDS011;50104;52.002;4.688;2022-08-04T06:58:19;8.98;;;2.80;;
47545;SDS011;50104;52.002;4.688;2022-08-04T07:03:21;4.15;;;1.70;;
47545;SDS011;50104;52.002;4.688;2022-08-04T07:08:22;5.15;;;1.92;;
47545;SDS011;50104;52.002;4.688;2022-08-04T07:13:23;4.38;;;2.05;;
47545;SDS011;50104;52.002;4.688;2022-08-04T07:18:25;5.80;;;2.40;;
47545;SDS011;50104;52.002;4.688;2022-08-04T07:23:26;10.00;;;2.20;;
47545;SDS011;50104;52.002;4.688;2022-08-04T07:28:28;6.75;;;2.03;;
47545;SDS011;50104;52.002;4.688;2022-08-04T07:33:29;4.30;;;1.80;;
47545;SDS011;50104;52.002;4.688;2022-08-04T07:38:30;5.40;;;2.20;;
47545;SDS011;50104;52.002;4.688;2022-08-04T07:43:32;6.47;;;2.03;;
47545;SDS011;50104;52.002;4.688;2022-08-04T07:48:35;4.65;;;1.70;;
47545;SDS011;50104;52.002;4.688;2022-08-04T07:53:38;4.43;;;1.35;;
47545;SDS011;50104;52.002;4.688;2022-08-04T07:58:39;5.05;;;1.35;;
47545;SDS011;50104;52.002;4.688;2022-08-04T08:03:40;7.10;;;1.95;;
47545;SDS011;50104;52.002;4.688;2022-08-04T08:08:42;4.10;;;1.13;;
47545;SDS011;50104;52.002;4.688;2022-08-04T08:13:42;5.90;;;1.60;;
47545;SDS011;50104;52.002;4.688;2022-08-04T08:18:44;3.20;;;1.35;;
47545;SDS011;50104;52.002;4.688;2022-08-04T08:23:46;3.75;;;1.27;;
47545;SDS011;50104;52.002;4.688;2022-08-04T08:28:47;3.22;;;1.13;;
47545;SDS011;50104;52.002;4.688;2022-08-04T08:33:48;2.85;;;1.40;;
47545;SDS011;50104;52.002;4.688;2022-08-04T08:39:00;5.32;;;1.63;;
47545;SDS011;50104;52.002;4.688;2022-08-04T09:01:29;5.30;;;2.05;;
47545;SDS011;50104;52.002;4.688;2022-08-04T09:12:58;4.28;;;1.35;;
47545;SDS011;50104;52.002;4.688;2022-08-04T09:23:27;3.47;;;1.50;;
47545;SDS011;50104;52.002;4.688;2022-08-04T09:34:09;5.32;;;1.45;;
47545;SDS011;50104;52.002;4.688;2022-08-04T09:39:25;5.20;;;1.40;;
47545;SDS011;50104;52.002;4.688;2022-08-04T09:50:06;3.53;;;1.35;;
47545;SDS011;50104;52.002;4.688;2022-08-04T10:00:52;7.05;;;1.33;;
47545;SDS011;50104;52.002;4.688;2022-08-04T10:11:57;3.72;;;1.13;;
47545;SDS011;50104;52.002;4.688;2022-08-04T10:23:07;0.95;;;0.77;;
47545;SDS011;50104;52.002;4.688;2022-08-04T10:28:20;1.60;;;0.90;;
47545;SDS011;50104;52.002;4.688;2022-08-04T10:33:32;2.05;;;0.88;;
47545;SDS011;50104;52.002;4.688;2022-08-04T10:44:12;2.72;;;1.48;;
47545;SDS011;50104;52.002;4.688;2022-08-04T10:54:43;2.70;;;1.13;;
47545;SDS011;50104;52.002;4.688;2022-08-04T11:05:11;3.65;;;1.20;;
47545;SDS011;50104;52.002;4.688;2022-08-04T11:10:28;3.17;;;1.40;;
47545;SDS011;50104;52.002;4.688;2022-08-04T11:15:37;4.28;;;1.50;;
47545;SDS011;50104;52.002;4.688;2022-08-04T11:20:54;1.98;;;1.27;;
47545;SDS011;50104;52.002;4.688;2022-08-04T11:26:07;5.22;;;1.30;;
47545;SDS011;50104;52.002;4.688;2022-08-04T11:31:14;4.97;;;1.45;;
47545;SDS011;50104;52.002;4.688;2022-08-04T11:36:33;2.75;;;1.45;;
47545;SDS011;50104;52.002;4.688;2022-08-04T11:41:51;1.42;;;1.00;;
47545;SDS011;50104;52.002;4.688;2022-08-04T11:46:58;3.65;;;2.10;;
47545;SDS011;50104;52.002;4.688;2022-08-04T11:52:04;2.40;;;1.60;;
47545;SDS011;50104;52.002;4.688;2022-08-04T11:57:07;3.03;;;0.93;;
47545;SDS011;50104;52.002;4.688;2022-08-04T12:13:53;2.67;;;0.93;;
47545;SDS011;50104;52.002;4.688;2022-08-04T12:20:15;2.33;;;0.73;;
47545;SDS011;50104;52.002;4.688;2022-08-04T12:24:54;1.20;;;0.70;;
47545;SDS011;50104;52.002;4.688;2022-08-04T12:29:59;2.05;;;1.00;;
47545;SDS011;50104;52.002;4.688;2022-08-04T12:40:16;1.25;;;0.88;;
47545;SDS011;50104;52.002;4.688;2022-08-04T12:45:23;2.63;;;0.80;;
47545;SDS011;50104;52.002;4.688;2022-08-04T12:50:24;1.35;;;0.90;;
47545;SDS011;50104;52.002;4.688;2022-08-04T12:55:26;3.17;;;1.05;;
47545;SDS011;50104;52.002;4.688;2022-08-04T13:00:34;1.30;;;0.80;;
47545;SDS011;50104;52.002;4.688;2022-08-04T13:05:36;1.80;;;0.88;;
47545;SDS011;50104;52.002;4.688;2022-08-04T13:10:41;3.45;;;1.17;;
47545;SDS011;50104;52.002;4.688;2022-08-04T13:16:02;2.60;;;0.95;;
47545;SDS011;50104;52.002;4.688;2022-08-04T13:21:12;1.25;;;0.85;;
47545;SDS011;50104;52.002;4.688;2022-08-04T13:26:20;2.67;;;1.00;;
47545;SDS011;50104;52.002;4.688;2022-08-04T13:31:22;1.60;;;0.90;;
47545;SDS011;50104;52.002;4.688;2022-08-04T13:36:27;2.63;;;0.90;;
47545;SDS011;50104;52.002;4.688;2022-08-04T13:41:29;4.15;;;1.05;;
47545;SDS011;50104;52.002;4.688;2022-08-04T13:46:31;2.97;;;1.05;;
47545;SDS011;50104;52.002;4.688;2022-08-04T13:51:39;1.85;;;1.10;;
47545;SDS011;50104;52.002;4.688;2022-08-04T13:56:44;3.28;;;1.08;;
47545;SDS011;50104;52.002;4.688;2022-08-04T14:01:59;3.78;;;1.40;;
47545;SDS011;50104;52.002;4.688;2022-08-04T14:12:15;5.88;;;1.13;;
47545;SDS011;50104;52.002;4.688;2022-08-04T14:17:17;3.75;;;1.17;;
47545;SDS011;50104;52.002;4.688;2022-08-04T14:27:29;2.85;;;1.05;;
47545;SDS011;50104;52.002;4.688;2022-08-04T14:37:59;3.00;;;1.10;;
47545;SDS011;50104;52.002;4.688;2022-08-04T14:43:09;3.00;;;0.90;;
47545;SDS011;50104;52.002;4.688;2022-08-04T14:48:11;2.58;;;0.93;;
47545;SDS011;50104;52.002;4.688;2022-08-04T14:53:17;2.67;;;0.80;;
47545;SDS011;50104;52.002;4.688;2022-08-04T14:58:21;2.40;;;1.00;;
47545;SDS011;50104;52.002;4.688;2022-08-04T15:03:26;3.17;;;1.10;;
47545;SDS011;50104;52.002;4.688;2022-08-04T15:08:29;4.05;;;1.10;;
47545;SDS011;50104;52.002;4.688;2022-08-04T15:13:30;2.38;;;1.10;;
47545;SDS011;50104;52.002;4.688;2022-08-04T15:18:32;3.53;;;0.85;;
47545;SDS011;50104;52.002;4.688;2022-08-04T15:23:33;3.30;;;1.08;;
47545;SDS011;50104;52.002;4.688;2022-08-04T15:28:35;3.10;;;0.93;;
47545;SDS011;50104;52.002;4.688;2022-08-04T15:33:40;3.47;;;1.20;;
47545;SDS011;50104;52.002;4.688;2022-08-04T15:39:04;2.92;;;0.85;;
47545;SDS011;50104;52.002;4.688;2022-08-04T15:45:12;3.22;;;1.05;;
47545;SDS011;50104;52.002;4.688;2022-08-04T15:50:03;4.22;;;1.25;;
47545;SDS011;50104;52.002;4.688;2022-08-04T16:05:47;2.38;;;1.02;;
47545;SDS011;50104;52.002;4.688;2022-08-04T16:10:48;3.13;;;1.30;;
47545;SDS011;50104;52.002;4.688;2022-08-04T16:15:53;2.78;;;0.98;;
47545;SDS011;50104;52.002;4.688;2022-08-04T16:21:03;3.92;;;1.08;;
47545;SDS011;50104;52.002;4.688;2022-08-04T16:26:06;4.40;;;1.30;;
47545;SDS011;50104;52.002;4.688;2022-08-04T16:31:10;1.58;;;1.00;;
47545;SDS011;50104;52.002;4.688;2022-08-04T16:36:12;2.47;;;0.90;;
47545;SDS011;50104;52.002;4.688;2022-08-04T16:41:23;3.53;;;1.20;;
47545;SDS011;50104;52.002;4.688;2022-08-04T16:46:41;2.85;;;1.10;;
47545;SDS011;50104;52.002;4.688;2022-08-04T16:51:42;2.90;;;1.00;;
47545;SDS011;50104;52.002;4.688;2022-08-04T16:56:43;2.33;;;0.95;;
47545;SDS011;50104;52.002;4.688;2022-08-04T17:01:49;2.75;;;1.10;;
47545;SDS011;50104;52.002;4.688;2022-08-04T17:06:51;4.72;;;1.10;;
47545;SDS011;50104;52.002;4.688;2022-08-04T17:12:03;2.75;;;0.90;;
47545;SDS011;50104;52.002;4.688;2022-08-04T17:17:06;2.85;;;0.90;;
47545;SDS011;50104;52.002;4.688;2022-08-04T17:22:13;3.30;;;1.40;;
47545;SDS011;50104;52.002;4.688;2022-08-04T17:27:15;2.47;;;1.45;;
47545;SDS011;50104;52.002;4.688;2022-08-04T17:32:16;2.13;;;1.23;;
47545;SDS011;50104;52.002;4.688;2022-08-04T17:37:22;2.15;;;0.95;;
47545;SDS011;50104;52.002;4.688;2022-08-04T17:42:31;3.93;;;1.10;;
47545;SDS011;50104;52.002;4.688;2022-08-04T17:47:58;5.30;;;0.85;;
47545;SDS011;50104;52.002;4.688;2022-08-04T17:53:04;1.48;;;0.90;;
47545;SDS011;50104;52.002;4.688;2022-08-04T17:58:19;2.05;;;1.17;;
47545;SDS011;50104;52.002;4.688;2022-08-04T18:03:24;3.75;;;1.70;;
47545;SDS011;50104;52.002;4.688;2022-08-04T18:08:26;3.65;;;1.30;;
47545;SDS011;50104;52.002;4.688;2022-08-04T18:13:26;3.47;;;1.38;;
47545;SDS011;50104;52.002;4.688;2022-08-04T18:18:27;2.42;;;1.20;;
47545;SDS011;50104;52.002;4.688;2022-08-04T18:23:28;2.78;;;1.35;;
47545;SDS011;50104;52.002;4.688;2022-08-04T18:28:29;2.40;;;1.20;;
47545;SDS011;50104;52.002;4.688;2022-08-04T18:33:30;3.40;;;1.52;;
47545;SDS011;50104;52.002;4.688;2022-08-04T18:38:31;4.65;;;1.38;;
47545;SDS011;50104;52.002;4.688;2022-08-04T18:43:31;6.38;;;1.63;;
47545;SDS011;50104;52.002;4.688;2022-08-04T18:48:32;6.60;;;1.63;;
47545;SDS011;50104;52.002;4.688;2022-08-04T18:53:33;7.22;;;2.00;;
47545;SDS011;50104;52.002;4.688;2022-08-04T18:58:33;4.95;;;1.60;;
47545;SDS011;50104;52.002;4.688;2022-08-04T19:03:34;3.10;;;1.52;;
47545;SDS011;50104;52.002;4.688;2022-08-04T19:08:35;4.55;;;2.28;;
47545;SDS011;50104;52.002;4.688;2022-08-04T19:13:36;6.60;;;2.05;;
47545;SDS011;50104;52.002;4.688;2022-08-04T19:18:37;4.90;;;1.98;;
47545;SDS011;50104;52.002;4.688;2022-08-04T19:23:38;6.88;;;2.42;;
47545;SDS011;50104;52.002;4.688;2022-08-04T19:28:38;5.63;;;2.05;;
47545;SDS011;50104;52.002;4.688;2022-08-04T19:33:39;5.82;;;2.03;;
47545;SDS011;50104;52.002;4.688;2022-08-04T19:38:41;3.70;;;1.55;;
47545;SDS011;50104;52.002;4.688;2022-08-04T19:43:42;6.57;;;1.90;;
47545;SDS011;50104;52.002;4.688;2022-08-04T19:48:45;3.08;;;1.52;;
47545;SDS011;50104;52.002;4.688;2022-08-04T19:53:46;4.70;;;1.75;;
47545;SDS011;50104;52.002;4.688;2022-08-04T19:58:47;7.45;;;2.10;;
47545;SDS011;50104;52.002;4.688;2022-08-04T20:03:47;5.18;;;1.70;;
47545;SDS011;50104;52.002;4.688;2022-08-04T20:08:48;5.90;;;2.00;;
47545;SDS011;50104;52.002;4.688;2022-08-04T20:13:49;6.32;;;2.33;;
47545;SDS011;50104;52.002;4.688;2022-08-04T20:18:50;6.50;;;3.03;;
47545;SDS011;50104;52.002;4.688;2022-08-04T20:23:51;6.05;;;2.10;;
47545;SDS011;50104;52.002;4.688;2022-08-04T20:28:51;8.68;;;2.00;;
47545;SDS011;50104;52.002;4.688;2022-08-04T20:33:52;11.20;;;2.45;;
47545;SDS011;50104;52.002;4.688;2022-08-04T20:38:53;7.57;;;3.05;;
47545;SDS011;50104;52.002;4.688;2022-08-04T20:43:54;7.80;;;2.85;;
47545;SDS011;50104;52.002;4.688;2022-08-04T20:48:55;6.85;;;2.40;;
47545;SDS011;50104;52.002;4.688;2022-08-04T20:53:56;5.70;;;3.05;;
47545;SDS011;50104;52.002;4.688;2022-08-04T20:58:58;7.40;;;3.10;;
47545;SDS011;50104;52.002;4.688;2022-08-04T21:03:58;6.22;;;3.17;;
47545;SDS011;50104;52.002;4.688;2022-08-04T21:09:18;8.15;;;2.92;;
47545;SDS011;50104;52.002;4.688;2022-08-04T21:14:18;6.50;;;2.45;;
47545;SDS011;50104;52.002;4.688;2022-08-04T21:19:19;7.05;;;3.05;;
47545;SDS011;50104;52.002;4.688;2022-08-04T21:24:20;5.70;;;2.80;;
47545;SDS011;50104;52.002;4.688;2022-08-04T21:29:23;7.20;;;3.00;;
47545;SDS011;50104;52.002;4.688;2022-08-04T21:34:24;6.13;;;2.58;;
47545;SDS011;50104;52.002;4.688;2022-08-04T21:39:25;7.55;;;2.60;;
47545;SDS011;50104;52.002;4.688;2022-08-04T21:44:26;4.80;;;2.40;;
47545;SDS011;50104;52.002;4.688;2022-08-04T21:49:27;4.88;;;2.58;;
47545;SDS011;50104;52.002;4.688;2022-08-04T21:54:28;7.43;;;2.55;;
47545;SDS011;50104;52.002;4.688;2022-08-04T21:59:28;10.23;;;3.20;;
47545;SDS011;50104;52.002;4.688;2022-08-04T22:04:29;6.25;;;3.10;;
47545;SDS011;50104;52.002;4.688;2022-08-04T22:09:30;9.13;;;3.17;;
47545;SDS011;50104;52.002;4.688;2022-08-04T22:14:32;9.10;;;3.80;;
47545;SDS011;50104;52.002;4.688;2022-08-04T22:19:33;7.75;;;3.47;;
47545;SDS011;50104;52.002;4.688;2022-08-04T22:24:34;6.35;;;3.03;;
47545;SDS011;50104;52.002;4.688;2022-08-04T22:29:35;9.43;;;3.40;;
47545;SDS011;50104;52.002;4.688;2022-08-04T22:34:35;7.93;;;3.45;;
47545;SDS011;50104;52.002;4.688;2022-08-04T22:39:39;8.20;;;4.68;;
47545;SDS011;50104;52.002;4.688;2022-08-04T22:44:39;9.40;;;4.57;;
47545;SDS011;50104;52.002;4.688;2022-08-04T22:49:40;6.15;;;4.47;;
47545;SDS011;50104;52.002;4.688;2022-08-04T22:54:41;11.63;;;5.13;;
47545;SDS011;50104;52.002;4.688;2022-08-04T22:59:42;12.90;;;4.95;;
47545;SDS011;50104;52.002;4.688;2022-08-04T23:04:42;11.00;;;5.40;;
47545;SDS011;50104;52.002;4.688;2022-08-04T23:09:43;8.88;;;5.63;;
47545;SDS011;50104;52.002;4.688;2022-08-04T23:14:44;8.32;;;5.72;;
47545;SDS011;50104;52.002;4.688;2022-08-04T23:19:45;8.65;;;4.57;;
47545;SDS011;50104;52.002;4.688;2022-08-04T23:24:46;8.32;;;4.78;;
47545;SDS011;50104;52.002;4.688;2022-08-04T23:29:47;10.52;;;4.68;;
47545;SDS011;50104;52.002;4.688;2022-08-04T23:34:47;10.38;;;4.43;;
47545;SDS011;50104;52.002;4.688;2022-08-04T23:39:48;9.55;;;4.60;;
47545;SDS011;50104;52.002;4.688;2022-08-04T23:44:49;11.07;;;4.63;;
47545;SDS011;50104;52.002;4.688;2022-08-04T23:49:50;8.73;;;4.63;;
47545;SDS011;50104;52.002;4.688;2022-08-04T23:54:51;9.93;;;4.75;;
47545;SDS011;50104;52.002;4.688;2022-08-04T23:59:52;8.02;;;4.43;;
